createdAt,value
2019-06-08T00:00:51.941Z,2.60
2019-06-08T00:03:16.711Z,2.90
2019-06-08T00:05:41.257Z,2.50
2019-06-08T00:08:05.753Z,2.50
2019-06-08T00:10:30.242Z,2.70
2019-06-08T00:12:54.885Z,2.60
2019-06-08T00:15:20.260Z,2.60
2019-06-08T00:17:51.258Z,2.90
2019-06-08T00:20:16.009Z,2.60
2019-06-08T00:22:40.488Z,2.77
2019-06-08T00:28:03.914Z,2.47
2019-06-08T00:30:28.878Z,2.37
2019-06-08T00:33:17.083Z,2.13
2019-06-08T00:35:41.642Z,2.00
2019-06-08T00:38:06.272Z,2.10
2019-06-08T00:40:30.827Z,1.97
2019-06-08T00:42:55.415Z,2.00
2019-06-08T00:47:55.832Z,1.80
2019-06-08T00:50:21.052Z,1.93
2019-06-08T00:53:10.846Z,1.70
2019-06-08T00:55:35.332Z,1.90
2019-06-08T01:00:36.113Z,1.97
2019-06-08T01:03:00.574Z,2.00
2019-06-08T01:08:00.706Z,2.10
2019-06-08T01:10:25.667Z,1.80
2019-06-08T01:12:50.223Z,1.90
2019-06-08T01:15:35.502Z,1.90
2019-06-08T01:18:03.845Z,1.90
2019-06-08T01:20:47.887Z,2.13
2019-06-08T01:23:12.426Z,2.20
2019-06-08T01:25:36.983Z,2.33
2019-06-08T01:28:01.555Z,2.20
2019-06-08T01:30:46.806Z,1.90
2019-06-08T01:33:11.289Z,2.23
2019-06-08T01:35:35.801Z,2.13
2019-06-08T01:38:00.315Z,2.00
2019-06-08T01:40:25.414Z,2.00
2019-06-08T01:42:49.905Z,1.80
2019-06-08T01:47:55.672Z,1.40
2019-06-08T01:50:20.185Z,1.60
2019-06-08T01:52:44.656Z,1.50
2019-06-08T01:55:09.276Z,1.50
2019-06-08T01:57:33.913Z,1.60
2019-06-08T01:59:58.355Z,1.57
2019-06-08T02:04:58.542Z,1.53
2019-06-08T02:07:24.229Z,1.40
2019-06-08T02:09:54.948Z,1.50
2019-06-08T02:12:19.447Z,1.23
2019-06-08T02:14:43.912Z,1.50
2019-06-08T02:17:08.415Z,1.30
2019-06-08T02:19:32.889Z,1.30
2019-06-08T02:21:57.385Z,1.70
2019-06-08T02:24:21.868Z,1.70
2019-06-08T02:26:46.367Z,1.23
2019-06-08T02:29:10.856Z,1.60
2019-06-08T02:34:11.374Z,1.70
2019-06-08T02:36:37.838Z,1.70
2019-06-08T02:42:13.929Z,1.70
2019-06-08T02:47:16.402Z,1.60
2019-06-08T02:50:02.580Z,1.60
2019-06-08T02:55:33.092Z,1.20
2019-06-08T03:00:52.868Z,2.07
2019-06-08T03:03:17.408Z,1.50
2019-06-08T03:05:42.293Z,1.33
2019-06-08T03:13:51.254Z,1.47
2019-06-08T03:16:15.795Z,1.40
2019-06-08T03:18:42.392Z,1.30
2019-06-08T03:21:11.798Z,1.30
2019-06-08T03:26:12.388Z,1.47
2019-06-08T03:28:37.738Z,1.43
2019-06-08T03:31:08.684Z,1.20
2019-06-08T03:33:37.897Z,1.30
2019-06-08T03:36:04.867Z,1.20
2019-06-08T03:41:21.913Z,1.40
2019-06-08T03:43:46.384Z,1.23
2019-06-08T03:46:10.866Z,1.20
2019-06-08T03:48:36.982Z,1.27
2019-06-08T03:51:07.685Z,1.23
2019-06-08T03:53:40.048Z,1.33
2019-06-08T03:56:27.624Z,1.23
2019-06-08T03:58:52.160Z,1.20
2019-06-08T04:01:16.765Z,1.13
2019-06-08T04:06:17.715Z,1.40
2019-06-08T04:11:37.836Z,1.23
2019-06-08T04:14:02.583Z,1.10
2019-06-08T04:16:27.058Z,1.10
2019-06-08T04:18:51.521Z,1.20
2019-06-08T04:23:52.511Z,1.00
2019-06-08T04:26:16.993Z,0.90
2019-06-08T04:31:17.645Z,1.00
2019-06-08T04:33:42.149Z,1.10
2019-06-08T04:36:06.618Z,1.00
2019-06-08T04:38:31.208Z,1.17
2019-06-08T04:40:55.684Z,1.30
2019-06-08T04:43:20.170Z,1.17
2019-06-08T04:45:45.843Z,1.10
2019-06-08T04:48:34.890Z,1.03
2019-06-08T04:50:59.370Z,1.13
2019-06-08T04:53:23.866Z,1.10
2019-06-08T04:55:49.295Z,1.10
2019-06-08T04:58:36.356Z,1.00
2019-06-08T05:03:36.950Z,1.00
2019-06-08T05:06:01.402Z,1.10
2019-06-08T05:08:31.258Z,1.10
2019-06-08T05:10:55.726Z,1.20
2019-06-08T05:16:15.327Z,0.90
2019-06-08T05:18:41.194Z,1.27
2019-06-08T05:21:30.504Z,0.90
2019-06-08T05:23:58.958Z,0.93
2019-06-08T05:26:43.647Z,0.90
2019-06-08T05:29:08.159Z,0.80
2019-06-08T05:31:32.641Z,0.90
2019-06-08T05:33:57.141Z,1.30
2019-06-08T05:38:58.452Z,0.90
2019-06-08T05:41:24.216Z,1.00
2019-06-08T05:44:13.098Z,1.13
2019-06-08T05:46:39.548Z,0.80
2019-06-08T05:49:10.956Z,1.20
2019-06-08T05:51:35.422Z,1.07
2019-06-08T05:54:02.891Z,1.23
2019-06-08T05:56:50.640Z,1.20
2019-06-08T05:59:15.146Z,0.97
2019-06-08T06:04:33.660Z,0.80
2019-06-08T06:06:58.275Z,1.10
2019-06-08T06:09:22.847Z,1.10
2019-06-08T06:14:23.987Z,0.80
2019-06-08T06:16:49.137Z,1.10
2019-06-08T06:19:36.648Z,0.63
2019-06-08T06:22:01.121Z,0.90
2019-06-08T06:24:25.625Z,0.90
2019-06-08T06:26:50.096Z,1.00
2019-06-08T06:31:52.083Z,0.90
2019-06-08T06:34:42.003Z,1.07
2019-06-08T06:37:06.522Z,0.80
2019-06-08T06:39:31.031Z,0.90
2019-06-08T06:41:55.515Z,1.00
2019-06-08T06:44:20.017Z,1.20
2019-06-08T06:46:46.005Z,0.93
2019-06-08T06:49:32.730Z,1.03
2019-06-08T06:51:57.211Z,0.93
2019-06-08T06:54:21.745Z,0.87
2019-06-08T06:59:38.363Z,0.80
2019-06-08T07:02:02.927Z,1.10
2019-06-08T07:04:27.509Z,0.90
2019-06-08T07:06:52.317Z,1.03
2019-06-08T07:09:41.923Z,0.90
2019-06-08T07:12:06.747Z,0.80
2019-06-08T07:14:31.264Z,0.93
2019-06-08T07:16:56.146Z,0.90
2019-06-08T07:19:27.831Z,0.90
2019-06-08T07:21:53.183Z,0.90
2019-06-08T07:24:23.705Z,1.00
2019-06-08T07:26:48.331Z,0.90
2019-06-08T07:29:12.807Z,0.70
2019-06-08T07:31:37.300Z,1.20
2019-06-08T07:34:01.864Z,1.53
2019-06-08T07:36:26.373Z,1.00
2019-06-08T07:38:51.415Z,0.80
2019-06-08T07:41:23.058Z,1.00
2019-06-08T07:43:48.007Z,1.00
2019-06-08T07:46:19.814Z,0.87
2019-06-08T07:48:44.433Z,1.07
2019-06-08T07:51:08.925Z,0.83
2019-06-08T07:53:33.407Z,0.97
2019-06-08T07:55:57.915Z,1.00
2019-06-08T07:58:22.464Z,1.10
2019-06-08T08:00:46.947Z,0.80
2019-06-08T08:03:11.486Z,1.37
2019-06-08T08:05:35.985Z,0.90
2019-06-08T08:08:00.458Z,1.00
2019-06-08T08:10:25.026Z,1.00
2019-06-08T08:15:30.469Z,1.07
2019-06-08T08:17:55.514Z,1.30
2019-06-08T08:20:45.661Z,0.90
2019-06-08T08:23:27.399Z,0.97
2019-06-08T08:26:08.173Z,0.90
2019-06-08T08:28:32.701Z,1.10
2019-06-08T08:30:59.806Z,1.10
2019-06-08T08:33:28.714Z,1.00
2019-06-08T08:35:53.722Z,1.13
2019-06-08T08:38:24.628Z,1.03
2019-06-08T08:40:51.135Z,1.00
2019-06-08T08:43:23.107Z,1.10
2019-06-08T08:45:53.978Z,1.27
2019-06-08T08:48:40.435Z,1.17
2019-06-08T08:54:05.345Z,1.13
2019-06-08T08:56:38.259Z,1.10
2019-06-08T08:59:25.202Z,1.50
2019-06-08T09:01:51.296Z,0.93
2019-06-08T09:04:21.296Z,1.00
2019-06-08T09:06:48.171Z,1.13
2019-06-08T09:12:02.219Z,0.97
2019-06-08T09:14:31.144Z,1.20
2019-06-08T09:19:31.728Z,1.00
2019-06-08T09:21:58.966Z,1.20
2019-06-08T09:24:28.601Z,1.00
2019-06-08T09:27:19.506Z,0.80
2019-06-08T09:29:44.021Z,1.00
2019-06-08T09:32:08.613Z,0.90
2019-06-08T09:34:33.042Z,0.90
2019-06-08T09:37:15.581Z,0.93
2019-06-08T09:39:40.061Z,1.07
2019-06-08T09:42:05.233Z,1.10
2019-06-08T09:44:37.675Z,0.67
2019-06-08T09:47:12.284Z,0.90
2019-06-08T09:49:39.813Z,0.90
2019-06-08T09:52:05.364Z,0.80
2019-06-08T09:54:54.099Z,0.70
2019-06-08T09:57:39.247Z,0.90
2019-06-08T10:00:26.376Z,0.90
2019-06-08T10:02:50.962Z,0.80
2019-06-08T10:05:18.322Z,0.80
2019-06-08T10:07:48.738Z,1.03
2019-06-08T10:10:35.665Z,0.93
2019-06-08T10:13:03.534Z,0.80
2019-06-08T10:15:51.551Z,0.90
2019-06-08T10:18:17.635Z,1.10
2019-06-08T10:21:06.033Z,1.40
2019-06-08T10:23:34.253Z,1.00
2019-06-08T10:26:03.434Z,1.30
2019-06-08T10:28:51.252Z,1.13
2019-06-08T10:31:17.463Z,1.20
2019-06-08T10:33:48.192Z,0.90
2019-06-08T10:36:18.928Z,1.00
2019-06-08T10:38:43.639Z,0.73
2019-06-08T10:41:18.949Z,1.20
2019-06-08T10:43:48.174Z,0.80
2019-06-08T10:46:35.046Z,1.20
2019-06-08T10:48:59.733Z,1.13
2019-06-08T10:51:24.258Z,1.20
2019-06-08T10:53:52.090Z,0.80
2019-06-08T10:56:20.749Z,1.00
2019-06-08T10:58:49.403Z,1.20
2019-06-08T11:01:18.763Z,1.23
2019-06-08T11:04:07.392Z,1.10
2019-06-08T11:06:32.081Z,0.80
2019-06-08T11:08:58.586Z,0.90
2019-06-08T11:11:28.519Z,0.90
2019-06-08T11:14:18.911Z,0.93
2019-06-08T11:16:44.318Z,0.80
2019-06-08T11:19:12.911Z,1.30
2019-06-08T11:22:02.871Z,1.20
2019-06-08T11:24:25.507Z,1.00
2019-06-08T11:27:15.364Z,0.90
2019-06-08T11:29:39.858Z,0.90
2019-06-08T11:32:05.781Z,1.07
2019-06-08T11:34:54.811Z,0.90
2019-06-08T11:37:21.094Z,0.90
2019-06-08T11:39:51.031Z,1.10
2019-06-08T11:42:15.599Z,0.90
2019-06-08T11:44:40.119Z,1.03
2019-06-08T11:49:44.225Z,1.10
2019-06-08T11:52:09.148Z,0.90
2019-06-08T11:54:57.371Z,1.37
2019-06-08T11:57:43.652Z,0.70
2019-06-08T12:00:31.000Z,1.00
2019-06-08T12:02:57.974Z,1.10
2019-06-08T12:05:43.515Z,0.60
2019-06-08T12:08:08.462Z,0.80
2019-06-08T12:10:41.167Z,0.90
2019-06-08T12:13:12.858Z,0.80
2019-06-08T12:15:59.818Z,0.90
2019-06-08T12:18:24.440Z,1.00
2019-06-08T12:20:49.002Z,1.20
2019-06-08T12:23:14.160Z,0.80
2019-06-08T12:25:45.844Z,0.90
2019-06-08T12:28:10.689Z,1.20
2019-06-08T12:30:41.883Z,1.63
2019-06-08T12:33:09.109Z,1.00
2019-06-08T12:35:38.063Z,1.30
2019-06-08T12:38:22.219Z,1.00
2019-06-08T12:40:48.619Z,1.20
2019-06-08T12:43:20.189Z,1.00
2019-06-08T12:45:50.591Z,1.07
2019-06-08T12:48:18.416Z,1.00
2019-06-08T12:50:47.977Z,1.07
2019-06-08T12:53:34.524Z,1.00
2019-06-08T12:55:59.111Z,1.00
2019-06-08T12:58:23.713Z,0.97
2019-06-08T13:00:48.481Z,1.00
2019-06-08T13:03:13.006Z,1.07
2019-06-08T13:05:38.073Z,1.10
2019-06-08T13:08:25.700Z,0.80
2019-06-08T13:10:50.183Z,1.00
2019-06-08T13:13:14.758Z,1.00
2019-06-08T13:15:39.298Z,1.30
2019-06-08T13:18:03.855Z,1.13
2019-06-08T13:20:28.503Z,1.13
2019-06-08T13:22:53.043Z,1.10
2019-06-08T13:25:40.302Z,0.90
2019-06-08T13:28:00.156Z,1.40
2019-06-08T13:30:26.429Z,1.10
2019-06-08T13:32:58.091Z,0.90
2019-06-08T13:35:44.610Z,1.00
2019-06-08T13:38:09.101Z,0.80
2019-06-08T13:43:15.375Z,0.90
2019-06-08T13:45:49.036Z,0.90
2019-06-08T13:48:19.002Z,1.30
2019-06-08T13:50:52.157Z,1.20
2019-06-08T13:53:27.444Z,1.20
2019-06-08T13:56:10.868Z,0.80
2019-06-08T13:58:35.365Z,0.90
2019-06-08T14:01:00.127Z,0.90
2019-06-08T14:03:24.670Z,1.03
2019-06-08T14:05:49.221Z,0.73
2019-06-08T14:08:14.511Z,0.90
2019-06-08T14:10:48.126Z,0.90
2019-06-08T14:13:37.467Z,1.00
2019-06-08T14:16:01.700Z,1.20
2019-06-08T14:18:29.934Z,0.63
2019-06-08T14:20:58.692Z,1.10
2019-06-08T14:23:29.473Z,1.00
2019-06-08T14:28:30.534Z,1.00
2019-06-08T14:30:54.999Z,1.23
2019-06-08T14:33:25.159Z,1.40
2019-06-08T14:36:07.954Z,1.27
2019-06-08T14:38:49.532Z,1.37
2019-06-08T14:41:14.111Z,1.00
2019-06-08T14:43:38.587Z,0.93
2019-06-08T14:46:03.065Z,1.00
2019-06-08T14:48:32.094Z,1.07
2019-06-08T14:50:59.072Z,1.00
2019-06-08T14:53:24.673Z,1.00
2019-06-08T14:56:11.445Z,1.03
2019-06-08T14:58:52.234Z,1.10
2019-06-08T15:01:19.514Z,1.10
2019-06-08T15:04:04.927Z,1.20
2019-06-08T15:06:33.986Z,0.90
2019-06-08T15:09:18.209Z,1.10
2019-06-08T15:11:43.786Z,0.90
2019-06-08T15:14:08.603Z,1.30
2019-06-08T15:16:58.881Z,0.87
2019-06-08T15:19:38.838Z,1.20
2019-06-08T15:22:03.365Z,1.20
2019-06-08T15:24:30.660Z,1.00
2019-06-08T15:26:59.337Z,1.03
2019-06-08T15:29:24.901Z,1.10
2019-06-08T15:32:14.322Z,1.10
2019-06-08T15:34:38.801Z,1.20
2019-06-08T15:37:03.293Z,1.10
2019-06-08T15:39:29.061Z,1.00
2019-06-08T15:42:00.190Z,0.90
2019-06-08T15:44:32.438Z,1.10
2019-06-08T15:47:03.340Z,1.10
2019-06-08T15:49:29.442Z,1.00
2019-06-08T15:51:59.791Z,0.90
2019-06-08T15:54:24.630Z,1.53
2019-06-08T15:56:58.342Z,1.00
2019-06-08T15:59:46.061Z,1.20
2019-06-08T16:02:10.649Z,0.97
2019-06-08T16:04:35.246Z,1.00
2019-06-08T16:06:59.874Z,1.20
2019-06-08T16:09:24.425Z,1.20
2019-06-08T16:11:48.913Z,1.27
2019-06-08T16:14:13.540Z,1.00
2019-06-08T16:16:38.015Z,1.10
2019-06-08T16:19:02.512Z,0.80
2019-06-08T16:21:27.334Z,1.03
2019-06-08T16:24:15.116Z,1.00
2019-06-08T16:26:52.343Z,1.07
2019-06-08T16:29:28.768Z,0.90
2019-06-08T16:31:53.486Z,1.27
2019-06-08T16:34:17.976Z,1.20
2019-06-08T16:36:42.464Z,1.00
2019-06-08T16:42:27.789Z,1.37
2019-06-08T16:44:52.331Z,0.90
2019-06-08T16:47:33.145Z,1.10
2019-06-08T16:49:57.688Z,0.97
2019-06-08T16:52:22.178Z,1.00
2019-06-08T16:54:46.751Z,1.10
2019-06-08T16:57:11.390Z,1.10
2019-06-08T16:59:36.612Z,1.10
2019-06-08T17:04:49.316Z,1.27
2019-06-08T17:07:13.955Z,1.00
2019-06-08T17:09:39.900Z,1.10
2019-06-08T17:12:26.503Z,1.20
2019-06-08T17:14:50.983Z,1.20
2019-06-08T17:17:15.528Z,1.57
2019-06-08T17:19:57.968Z,1.13
2019-06-08T17:22:22.442Z,1.37
2019-06-08T17:24:47.038Z,1.07
2019-06-08T17:27:25.712Z,1.00
2019-06-08T17:29:43.549Z,1.20
2019-06-08T17:32:08.052Z,2.93
2019-06-08T17:34:50.489Z,1.23
2019-06-08T17:37:14.946Z,1.20
2019-06-08T17:39:40.115Z,0.90
2019-06-08T17:42:11.262Z,0.93
2019-06-08T17:44:36.459Z,1.10
2019-06-08T17:47:24.850Z,2.30
2019-06-08T17:49:49.352Z,2.00
2019-06-08T17:52:13.847Z,1.83
2019-06-08T17:54:39.012Z,1.50
2019-06-08T17:57:41.358Z,2.00
2019-06-08T17:59:54.607Z,1.23
2019-06-08T18:02:27.812Z,2.13
2019-06-08T18:04:50.990Z,2.20
2019-06-08T18:07:17.118Z,1.40
2019-06-08T18:09:48.489Z,1.33
2019-06-08T18:12:18.836Z,1.20
2019-06-08T18:14:49.997Z,1.17
2019-06-08T18:17:15.423Z,1.37
2019-06-08T18:19:48.961Z,1.03
2019-06-08T18:22:18.807Z,1.57
2019-06-08T18:24:49.650Z,1.50
2019-06-08T18:27:14.180Z,1.80
2019-06-08T18:29:39.599Z,1.27
2019-06-08T18:32:10.328Z,1.10
2019-06-08T18:34:37.270Z,1.07
2019-06-08T18:37:28.463Z,1.20
2019-06-08T18:39:53.066Z,1.00
2019-06-08T18:44:58.283Z,1.20
2019-06-08T18:47:48.360Z,0.97
2019-06-08T18:50:13.350Z,1.07
2019-06-08T18:52:40.539Z,1.23
2019-06-08T18:57:53.419Z,1.10
2019-06-08T19:00:34.460Z,1.10
2019-06-08T19:02:58.968Z,1.10
2019-06-08T19:05:23.451Z,1.20
2019-06-08T19:07:50.245Z,1.00
2019-06-08T19:10:41.099Z,1.20
2019-06-08T19:16:08.106Z,1.10
2019-06-08T19:18:32.627Z,1.20
2019-06-08T19:20:57.648Z,1.27
2019-06-08T19:23:28.842Z,1.07
2019-06-08T19:25:53.413Z,0.97
2019-06-08T19:28:32.675Z,1.27
2019-06-08T19:31:10.272Z,1.03
2019-06-08T19:33:34.678Z,1.37
2019-06-08T19:35:59.169Z,1.10
2019-06-08T19:38:42.934Z,0.97
2019-06-08T19:41:08.169Z,1.10
2019-06-08T19:43:40.574Z,1.10
2019-06-08T19:46:30.450Z,1.20
2019-06-08T19:48:55.923Z,0.90
2019-06-08T19:51:47.925Z,1.20
2019-06-08T19:54:11.376Z,0.90
2019-06-08T19:56:35.857Z,1.40
2019-06-08T19:59:04.644Z,0.77
2019-06-08T20:01:32.514Z,1.00
2019-06-08T20:03:58.073Z,0.80
2019-06-08T20:06:45.573Z,0.90
2019-06-08T20:09:10.810Z,0.90
2019-06-08T20:11:37.263Z,0.93
2019-06-08T20:14:23.108Z,0.90
2019-06-08T20:16:49.627Z,0.70
2019-06-08T20:19:19.691Z,1.00
2019-06-08T20:21:45.005Z,0.70
2019-06-08T20:24:18.462Z,0.80
2019-06-08T20:26:51.750Z,0.97
2019-06-08T20:29:38.900Z,0.87
2019-06-08T20:32:03.387Z,1.10
2019-06-08T20:34:27.887Z,0.90
2019-06-08T20:36:52.756Z,0.90
2019-06-08T20:39:53.673Z,0.83
2019-06-08T20:42:11.192Z,1.00
2019-06-08T20:44:57.771Z,1.00
2019-06-08T20:47:22.327Z,0.80
2019-06-08T20:49:48.949Z,1.00
2019-06-08T20:52:37.751Z,1.07
2019-06-08T20:55:02.400Z,1.00
2019-06-08T20:57:27.389Z,1.00
2019-06-08T20:59:58.123Z,1.37
2019-06-08T21:02:29.524Z,1.00
2019-06-08T21:04:54.925Z,1.00
2019-06-08T21:07:27.990Z,1.00
2019-06-08T21:09:58.144Z,1.00
2019-06-08T21:12:28.780Z,1.03
2019-06-08T21:15:09.760Z,1.13
2019-06-08T21:17:52.060Z,1.07
2019-06-08T21:20:17.725Z,1.10
2019-06-08T21:23:08.145Z,0.97
2019-06-08T21:25:32.820Z,1.00
2019-06-08T21:27:58.554Z,1.10
2019-06-08T21:30:51.437Z,1.20
2019-06-08T21:33:13.789Z,1.17
2019-06-08T21:35:38.466Z,1.03
2019-06-08T21:38:02.990Z,1.00
2019-06-08T21:40:28.132Z,1.10
2019-06-08T21:43:01.421Z,1.13
2019-06-08T21:45:31.812Z,1.10
2019-06-08T21:47:59.016Z,1.10
2019-06-08T21:50:48.976Z,1.00
2019-06-08T21:53:12.581Z,1.00
2019-06-08T21:55:38.062Z,1.17
2019-06-08T21:58:27.429Z,1.30
2019-06-08T22:01:12.772Z,1.20
2019-06-08T22:03:38.081Z,1.10
2019-06-08T22:06:09.190Z,1.30
2019-06-08T22:08:33.733Z,1.40
2019-06-08T22:10:59.409Z,1.40
2019-06-08T22:13:29.721Z,1.80
2019-06-08T22:15:54.851Z,1.30
2019-06-08T22:18:42.323Z,1.40
2019-06-08T22:21:08.104Z,1.20
2019-06-08T22:23:38.205Z,1.40
2019-06-08T22:26:03.642Z,1.30
2019-06-08T22:28:52.070Z,1.17
2019-06-08T22:33:59.081Z,1.27
2019-06-08T22:36:27.690Z,1.60
2019-06-08T22:38:52.938Z,1.17
2019-06-08T22:41:42.555Z,1.27
2019-06-08T22:44:08.268Z,1.30
2019-06-08T22:46:59.860Z,1.23
2019-06-08T22:49:23.008Z,1.20
2019-06-08T22:51:47.732Z,1.13
2019-06-08T22:54:35.258Z,1.23
2019-06-08T22:57:01.839Z,1.27
2019-06-08T22:59:49.928Z,1.30
2019-06-08T23:02:14.420Z,1.30
2019-06-08T23:04:38.912Z,1.30
2019-06-08T23:07:06.135Z,1.20
2019-06-08T23:09:37.174Z,1.13
2019-06-08T23:12:22.488Z,1.40
2019-06-08T23:14:47.183Z,1.30
2019-06-08T23:17:38.936Z,1.20
2019-06-08T23:23:09.426Z,1.50
2019-06-08T23:25:51.730Z,1.40
2019-06-08T23:28:18.158Z,1.50
2019-06-08T23:31:19.367Z,1.50
2019-06-08T23:33:32.486Z,1.70
2019-06-08T23:36:33.433Z,1.47
2019-06-08T23:38:28.520Z,1.57
2019-06-08T23:40:52.997Z,1.40
2019-06-08T23:43:18.182Z,1.90
2019-06-08T23:46:05.734Z,1.50
2019-06-08T23:48:30.274Z,1.30
2019-06-08T23:50:54.757Z,1.60
2019-06-08T23:53:19.253Z,1.50
2019-06-08T23:55:43.731Z,1.50
2019-06-08T23:58:11.153Z,1.80
